createdAt,value
2022-12-29T00:00:12.631Z,100932.20
2022-12-29T00:03:28.741Z,100926.86
2022-12-29T00:06:19.771Z,100923.60
2022-12-29T00:08:47.959Z,100921.60
2022-12-29T00:11:26.702Z,100923.67
2022-12-29T00:14:13.835Z,100922.42
2022-12-29T00:17:00.696Z,100922.32
2022-12-29T00:19:57.023Z,100922.33
2022-12-29T00:25:58.007Z,100921.41
2022-12-29T00:29:25.777Z,100920.55
2022-12-29T00:32:19.741Z,100918.77
2022-12-29T00:35:09.402Z,100907.63
2022-12-29T00:38:38.229Z,100902.46
2022-12-29T00:41:28.001Z,100905.95
2022-12-29T00:44:14.703Z,100909.04
2022-12-29T00:46:45.854Z,100903.77
2022-12-29T00:49:39.341Z,100902.27
2022-12-29T00:52:40.708Z,100905.61
2022-12-29T00:55:24.089Z,100901.45
2022-12-29T00:57:53.662Z,100902.69
2022-12-29T01:01:12.820Z,100905.31
2022-12-29T01:03:38.413Z,100907.30
2022-12-29T01:06:11.710Z,100902.64
2022-12-29T01:08:39.918Z,100899.98
2022-12-29T01:11:13.206Z,100896.39
2022-12-29T01:13:42.959Z,100899.61
2022-12-29T01:16:13.034Z,100900.80
2022-12-29T01:19:17.102Z,100898.89
2022-12-29T01:22:46.987Z,100890.08
2022-12-29T01:27:30.490Z,100882.27
2022-12-29T01:28:25.905Z,100875.31
2022-12-29T01:31:28.817Z,100878.61
2022-12-29T01:35:01.826Z,100875.61
2022-12-29T01:37:38.495Z,100869.61
2022-12-29T01:40:17.392Z,100864.01
2022-12-29T01:43:01.673Z,100861.40
2022-12-29T01:46:03.148Z,100863.69
2022-12-29T01:48:37.288Z,100860.90
2022-12-29T01:51:07.691Z,100856.71
2022-12-29T01:53:37.827Z,100852.80
2022-12-29T01:56:10.185Z,100852.91
2022-12-29T01:58:46.325Z,100850.67
2022-12-29T02:01:16.682Z,100853.01
2022-12-29T02:03:49.857Z,100856.48
2022-12-29T02:06:30.429Z,100858.20
2022-12-29T02:09:04.012Z,100858.59
2022-12-29T02:11:37.917Z,100859.65
2022-12-29T02:14:11.681Z,100859.17
2022-12-29T02:17:12.871Z,100856.08
2022-12-29T02:20:38.165Z,100854.73
2022-12-29T02:23:50.366Z,100858.10
2022-12-29T02:27:00.413Z,100852.95
2022-12-29T02:30:11.842Z,100848.44
2022-12-29T02:32:57.051Z,100845.16
2022-12-29T02:35:38.316Z,100845.14
2022-12-29T02:38:43.338Z,100843.39
2022-12-29T02:41:36.888Z,100845.18
2022-12-29T02:44:28.131Z,100846.86
2022-12-29T02:47:09.060Z,100848.05
2022-12-29T02:50:06.986Z,100847.79
2022-12-29T02:52:41.743Z,100850.67
2022-12-29T02:55:25.403Z,100855.07
2022-12-29T02:58:08.966Z,100849.77
2022-12-29T03:00:52.427Z,100845.52
2022-12-29T03:04:15.284Z,100846.92
2022-12-29T03:06:59.204Z,100842.14
2022-12-29T03:09:49.135Z,100846.00
2022-12-29T03:13:34.868Z,100848.59
2022-12-29T03:16:15.945Z,100849.19
2022-12-29T03:19:08.525Z,100848.00
2022-12-29T03:22:25.637Z,100844.79
2022-12-29T03:25:30.499Z,100847.92
2022-12-29T03:28:21.432Z,100846.27
2022-12-29T03:30:57.936Z,100845.27
2022-12-29T03:33:38.820Z,100842.63
2022-12-29T03:36:20.758Z,100837.63
2022-12-29T03:39:17.632Z,100834.37
2022-12-29T03:42:16.229Z,100833.98
2022-12-29T03:44:58.944Z,100827.95
2022-12-29T03:47:34.099Z,100830.48
2022-12-29T03:50:02.628Z,100834.55
2022-12-29T03:52:52.661Z,100831.55
2022-12-29T03:55:30.658Z,100830.36
2022-12-29T03:58:04.977Z,100828.73
2022-12-29T04:00:52.661Z,100829.48
2022-12-29T04:03:29.732Z,100830.09
2022-12-29T04:06:05.223Z,100831.31
2022-12-29T04:09:04.630Z,100838.01
2022-12-29T04:11:58.104Z,100829.59
2022-12-29T04:15:03.340Z,100828.67
2022-12-29T04:17:53.517Z,100820.22
2022-12-29T04:20:47.926Z,100821.34
2022-12-29T04:23:36.864Z,100819.45
2022-12-29T04:26:35.680Z,100823.38
2022-12-29T04:29:24.986Z,100820.42
2022-12-29T04:32:16.597Z,100823.66
2022-12-29T04:34:59.835Z,100830.85
2022-12-29T04:37:51.329Z,100832.43
2022-12-29T04:40:25.772Z,100829.51
2022-12-29T04:42:56.364Z,100824.68
2022-12-29T04:45:37.607Z,100824.52
2022-12-29T04:48:22.967Z,100823.23
2022-12-29T04:52:04.569Z,100823.02
2022-12-29T04:54:51.406Z,100826.44
2022-12-29T04:57:51.163Z,100824.53
2022-12-29T05:00:44.522Z,100819.52
2022-12-29T05:03:18.521Z,100827.02
2022-12-29T05:05:48.542Z,100824.20
2022-12-29T05:08:21.937Z,100828.81
2022-12-29T05:11:00.645Z,100831.64
2022-12-29T05:13:34.749Z,100822.29
2022-12-29T05:16:16.229Z,100819.36
2022-12-29T05:18:50.855Z,100819.73
2022-12-29T05:21:19.087Z,100821.27
2022-12-29T05:24:15.126Z,100824.14
2022-12-29T05:27:12.142Z,100825.88
2022-12-29T05:30:00.488Z,100822.79
2022-12-29T05:32:45.656Z,100820.60
2022-12-29T05:35:40.022Z,100815.85
2022-12-29T05:38:31.103Z,100810.10
2022-12-29T05:41:12.791Z,100809.23
2022-12-29T05:44:14.119Z,100810.14
2022-12-29T05:47:30.447Z,100815.11
2022-12-29T05:51:08.475Z,100812.99
2022-12-29T06:02:01.401Z,100814.49
2022-12-29T06:05:33.522Z,100818.12
2022-12-29T06:09:38.087Z,100822.02
2022-12-29T06:12:19.116Z,100822.00
2022-12-29T06:15:24.299Z,100823.67
2022-12-29T06:18:42.374Z,100827.30
2022-12-29T06:22:17.006Z,100830.93
2022-12-29T06:25:03.061Z,100830.77
2022-12-29T06:31:02.540Z,100832.92
2022-12-29T06:37:06.349Z,100834.11
2022-12-29T06:41:42.718Z,100837.34
2022-12-29T06:42:33.755Z,100842.34
2022-12-29T06:45:47.886Z,100839.98
2022-12-29T06:48:22.943Z,100835.84
2022-12-29T06:51:00.471Z,100839.42
2022-12-29T06:53:27.287Z,100841.08
2022-12-29T06:55:57.083Z,100838.73
2022-12-29T06:58:34.189Z,100830.94
2022-12-29T07:01:11.928Z,100824.58
2022-12-29T07:03:49.660Z,100828.20
2022-12-29T07:06:29.156Z,100834.58
2022-12-29T07:09:20.731Z,100836.03
2022-12-29T07:11:47.696Z,100839.67
2022-12-29T07:14:18.956Z,100837.40
2022-12-29T07:16:45.725Z,100840.86
2022-12-29T07:19:24.970Z,100840.38
2022-12-29T07:21:58.257Z,100839.18
2022-12-29T07:24:26.150Z,100839.73
2022-12-29T07:26:56.633Z,100834.20
2022-12-29T07:29:23.687Z,100829.77
2022-12-29T07:31:50.812Z,100831.48
2022-12-29T07:34:22.020Z,100834.41
2022-12-29T07:37:06.456Z,100830.17
2022-12-29T07:39:53.718Z,100826.22
2022-12-29T07:42:22.414Z,100834.58
2022-12-29T07:44:54.171Z,100839.80
2022-12-29T07:47:27.141Z,100835.25
2022-12-29T07:49:57.557Z,100839.14
2022-12-29T07:52:36.004Z,100837.31
2022-12-29T07:55:05.589Z,100833.63
2022-12-29T07:57:43.111Z,100836.60
2022-12-29T08:00:28.415Z,100839.40
2022-12-29T08:03:19.363Z,100832.81
2022-12-29T08:06:11.527Z,100834.41
2022-12-29T08:08:40.964Z,100833.02
2022-12-29T08:11:19.132Z,100831.61
2022-12-29T08:13:52.482Z,100835.36
2022-12-29T08:16:25.971Z,100830.93
2022-12-29T08:18:57.245Z,100823.33
2022-12-29T08:21:27.315Z,100825.56
2022-12-29T08:23:54.170Z,100826.17
2022-12-29T08:26:22.226Z,100829.35
2022-12-29T08:28:53.221Z,100832.42
2022-12-29T08:31:29.342Z,100830.39
2022-12-29T08:34:13.155Z,100834.92
2022-12-29T08:36:50.561Z,100835.69
2022-12-29T08:39:17.420Z,100832.77
2022-12-29T08:41:43.987Z,100841.95
2022-12-29T08:44:10.728Z,100839.17
2022-12-29T08:46:37.485Z,100843.63
2022-12-29T08:49:04.271Z,100848.76
2022-12-29T08:51:31.048Z,100846.77
2022-12-29T08:53:57.812Z,100845.46
2022-12-29T08:56:24.415Z,100843.46
2022-12-29T08:58:52.630Z,100845.06
2022-12-29T09:01:20.504Z,100848.17
2022-12-29T09:04:13.992Z,100846.21
2022-12-29T09:06:39.915Z,100843.41
2022-12-29T09:09:07.425Z,100846.30
2022-12-29T09:11:34.204Z,100846.71
2022-12-29T09:14:01.207Z,100837.60
2022-12-29T09:16:29.344Z,100835.70
2022-12-29T09:18:58.637Z,100831.80
2022-12-29T09:21:25.328Z,100828.64
2022-12-29T09:23:52.097Z,100824.63
2022-12-29T09:26:18.935Z,100820.91
2022-12-29T09:28:46.401Z,100818.35
2022-12-29T09:31:13.378Z,100815.81
2022-12-29T09:33:40.622Z,100810.69
2022-12-29T09:36:09.138Z,100809.48
2022-12-29T09:38:35.941Z,100803.34
2022-12-29T09:41:44.703Z,100799.36
2022-12-29T09:44:34.181Z,100796.21
2022-12-29T09:47:01.808Z,100789.08
2022-12-29T09:49:46.525Z,100781.11
2022-12-29T09:52:22.357Z,100773.33
2022-12-29T09:55:00.904Z,100765.52
2022-12-29T09:57:50.159Z,100762.91
2022-12-29T10:00:23.535Z,100757.99
2022-12-29T10:03:03.548Z,100753.27
2022-12-29T10:05:38.509Z,100747.36
2022-12-29T10:08:35.290Z,100746.92
2022-12-29T10:11:27.960Z,100751.73
2022-12-29T10:14:15.970Z,100749.05
2022-12-29T10:16:55.315Z,100740.73
2022-12-29T10:19:40.891Z,100736.79
2022-12-29T10:22:10.755Z,100734.16
2022-12-29T10:24:40.133Z,100736.69
2022-12-29T10:27:17.244Z,100734.98
2022-12-29T10:29:58.689Z,100732.89
2022-12-29T10:32:35.595Z,100732.84
2022-12-29T10:35:19.296Z,100728.98
2022-12-29T10:37:46.229Z,100732.15
2022-12-29T10:40:22.590Z,100733.20
2022-12-29T10:42:53.976Z,100731.30
2022-12-29T10:45:26.119Z,100730.20
2022-12-29T10:48:07.024Z,100727.32
2022-12-29T10:50:33.841Z,100725.86
2022-12-29T10:53:05.099Z,100721.40
2022-12-29T10:55:36.548Z,100721.58
2022-12-29T10:58:07.265Z,100720.64
2022-12-29T11:00:34.375Z,100714.49
2022-12-29T11:03:19.010Z,100714.25
2022-12-29T11:05:54.817Z,100711.98
2022-12-29T11:08:26.606Z,100707.48
2022-12-29T11:11:04.100Z,100710.33
2022-12-29T11:13:38.540Z,100707.73
2022-12-29T11:16:06.113Z,100707.31
2022-12-29T11:18:37.588Z,100702.08
2022-12-29T11:21:34.361Z,100694.75
2022-12-29T11:24:04.478Z,100702.27
2022-12-29T11:26:34.839Z,100698.59
2022-12-29T11:29:08.090Z,100695.54
2022-12-29T11:32:10.578Z,100693.05
2022-12-29T11:34:37.195Z,100688.27
2022-12-29T11:37:10.516Z,100685.45
2022-12-29T11:39:46.879Z,100682.36
2022-12-29T11:42:19.370Z,100681.23
2022-12-29T11:44:48.608Z,100676.58
2022-12-29T11:47:29.386Z,100666.73
2022-12-29T11:50:02.774Z,100663.33
2022-12-29T11:52:35.467Z,100655.13
2022-12-29T11:55:05.640Z,100650.13
2022-12-29T11:57:34.791Z,100652.58
2022-12-29T12:00:17.783Z,100656.91
2022-12-29T12:02:53.697Z,100660.02
2022-12-29T12:05:45.152Z,100659.50
2022-12-29T12:08:21.119Z,100651.67
2022-12-29T12:10:59.393Z,100651.27
2022-12-29T12:13:53.087Z,100648.14
2022-12-29T12:16:45.998Z,100639.56
2022-12-29T12:19:41.051Z,100634.91
2022-12-29T12:22:28.067Z,100629.33
2022-12-29T12:25:18.402Z,100628.41
2022-12-29T12:28:03.238Z,100637.18
2022-12-29T12:30:43.840Z,100637.23
2022-12-29T12:33:14.052Z,100626.52
2022-12-29T12:35:48.669Z,100625.75
2022-12-29T12:38:43.966Z,100624.13
2022-12-29T12:41:21.980Z,100620.34
2022-12-29T12:44:03.241Z,100615.98
2022-12-29T12:46:58.192Z,100614.42
2022-12-29T12:49:41.587Z,100616.14
2022-12-29T12:52:37.201Z,100610.02
2022-12-29T12:55:14.727Z,100605.61
2022-12-29T12:58:26.020Z,100607.79
2022-12-29T13:00:55.678Z,100603.03
2022-12-29T13:03:41.045Z,100607.45
2022-12-29T13:06:31.346Z,100603.20
2022-12-29T13:09:17.759Z,100608.16
2022-12-29T13:12:22.084Z,100611.80
2022-12-29T13:15:10.206Z,100611.96
2022-12-29T13:17:46.418Z,100609.44
2022-12-29T13:20:15.996Z,100612.52
2022-12-29T13:23:11.629Z,100614.64
2022-12-29T13:25:50.950Z,100613.61
2022-12-29T13:28:39.687Z,100616.17
2022-12-29T13:31:25.773Z,100614.00
2022-12-29T13:34:13.985Z,100615.72
2022-12-29T13:36:48.890Z,100613.20
2022-12-29T13:39:31.524Z,100612.06
2022-12-29T13:42:01.879Z,100612.69
2022-12-29T13:44:40.028Z,100606.90
2022-12-29T13:47:31.723Z,100605.46
2022-12-29T13:50:02.159Z,100602.96
2022-12-29T13:52:47.384Z,100597.05
2022-12-29T13:55:38.773Z,100591.11
2022-12-29T13:58:27.660Z,100590.34
2022-12-29T14:01:01.650Z,100591.32
2022-12-29T14:04:11.783Z,100589.14
2022-12-29T14:06:43.085Z,100586.08
2022-12-29T14:09:40.180Z,100583.09
2022-12-29T14:12:40.088Z,100582.22
2022-12-29T14:15:13.435Z,100579.42
2022-12-29T14:18:44.296Z,100573.70
2022-12-29T14:21:25.124Z,100565.84
2022-12-29T14:24:10.081Z,100556.05
2022-12-29T14:27:09.717Z,100550.63
2022-12-29T14:29:42.624Z,100549.88
2022-12-29T14:32:33.081Z,100553.45
2022-12-29T14:36:00.337Z,100558.55
2022-12-29T14:38:34.983Z,100555.63
2022-12-29T14:41:43.140Z,100555.79
2022-12-29T14:44:34.165Z,100557.88
2022-12-29T14:47:51.140Z,100561.36
2022-12-29T14:51:03.168Z,100563.90
2022-12-29T14:53:55.078Z,100561.46
2022-12-29T14:56:32.255Z,100563.15
2022-12-29T14:59:13.891Z,100563.71
2022-12-29T15:01:50.174Z,100560.53
2022-12-29T15:04:23.721Z,100563.20
2022-12-29T15:06:51.293Z,100561.36
2022-12-29T15:09:31.371Z,100558.60
2022-12-29T15:12:23.984Z,100559.69
2022-12-29T15:14:54.210Z,100556.25
2022-12-29T15:17:29.790Z,100552.02
2022-12-29T15:20:04.525Z,100550.35
2022-12-29T15:22:33.161Z,100547.83
2022-12-29T15:25:02.821Z,100548.47
2022-12-29T15:27:34.711Z,100545.74
2022-12-29T15:30:17.825Z,100537.25
2022-12-29T15:32:50.586Z,100543.05
2022-12-29T15:35:36.280Z,100543.45
2022-12-29T15:38:30.308Z,100548.34
2022-12-29T15:41:06.415Z,100546.67
2022-12-29T15:44:10.229Z,100544.31
2022-12-29T15:46:40.073Z,100546.70
2022-12-29T15:49:18.859Z,100549.81
2022-12-29T15:51:47.944Z,100545.62
2022-12-29T15:54:21.720Z,100549.00
2022-12-29T15:56:52.464Z,100551.32
2022-12-29T15:59:33.285Z,100543.23
2022-12-29T16:02:08.590Z,100539.11
2022-12-29T16:05:15.623Z,100547.73
2022-12-29T16:07:41.638Z,100552.83
2022-12-29T16:10:49.519Z,100558.45
2022-12-29T16:13:50.605Z,100557.21
2022-12-29T16:16:27.936Z,100557.80
2022-12-29T16:19:00.854Z,100562.80
2022-12-29T16:21:38.077Z,100571.80
2022-12-29T16:24:13.970Z,100574.80
2022-12-29T16:26:56.396Z,100571.00
2022-12-29T16:29:30.485Z,100570.37
2022-12-29T16:32:03.175Z,100572.39
2022-12-29T16:34:37.949Z,100567.47
2022-12-29T16:37:33.645Z,100563.82
2022-12-29T16:40:24.459Z,100555.52
2022-12-29T16:43:00.801Z,100550.77
2022-12-29T16:46:00.298Z,100552.88
2022-12-29T16:48:59.835Z,100549.36
2022-12-29T16:51:46.814Z,100544.39
2022-12-29T16:54:59.551Z,100550.57
2022-12-29T16:57:40.942Z,100544.22
2022-12-29T17:00:33.679Z,100538.65
2022-12-29T17:03:12.276Z,100538.33
2022-12-29T17:05:40.799Z,100536.77
2022-12-29T17:08:28.002Z,100531.72
2022-12-29T17:11:15.817Z,100532.76
2022-12-29T17:13:59.426Z,100531.81
2022-12-29T17:16:30.990Z,100529.30
2022-12-29T17:19:21.080Z,100525.64
2022-12-29T17:22:05.632Z,100519.93
2022-12-29T17:24:41.972Z,100516.26
2022-12-29T17:27:48.995Z,100512.55
2022-12-29T17:30:29.726Z,100514.83
2022-12-29T17:33:22.324Z,100507.21
2022-12-29T17:36:01.878Z,100505.08
2022-12-29T17:40:19.224Z,100507.92
2022-12-29T17:45:06.712Z,100504.08
2022-12-29T17:47:38.547Z,100502.10
2022-12-29T17:50:48.390Z,100508.27
2022-12-29T17:53:25.592Z,100508.47
2022-12-29T17:56:03.885Z,100509.77
2022-12-29T17:58:39.897Z,100511.65
2022-12-29T18:01:32.410Z,100508.16
2022-12-29T18:04:40.667Z,100511.70
2022-12-29T18:07:43.555Z,100514.79
2022-12-29T18:10:59.339Z,100511.73
2022-12-29T18:13:55.759Z,100509.27
2022-12-29T18:16:55.208Z,100509.02
2022-12-29T18:19:35.747Z,100505.02
2022-12-29T18:22:22.836Z,100503.94
2022-12-29T18:28:53.036Z,100509.45
2022-12-29T18:31:34.048Z,100509.85
2022-12-29T18:35:09.731Z,100507.45
2022-12-29T18:37:32.811Z,100506.74
2022-12-29T18:40:30.031Z,100510.06
2022-12-29T18:42:07.822Z,100509.32
2022-12-29T18:42:59.569Z,100512.73
2022-12-29T18:45:34.995Z,100514.77
2022-12-29T18:48:22.405Z,100517.42
2022-12-29T18:51:04.722Z,100517.47
2022-12-29T18:53:37.389Z,100516.27
2022-12-29T18:56:26.790Z,100513.04
2022-12-29T18:59:11.012Z,100510.70
2022-12-29T19:01:51.699Z,100509.48
2022-12-29T19:05:10.473Z,100506.33
2022-12-29T19:08:04.558Z,100506.44
2022-12-29T19:10:49.551Z,100506.85
2022-12-29T19:13:52.293Z,100507.70
2022-12-29T19:16:25.687Z,100511.52
2022-12-29T19:19:09.615Z,100508.80
2022-12-29T19:21:39.727Z,100508.63
2022-12-29T19:24:37.081Z,100509.09
2022-12-29T19:27:07.694Z,100506.58
2022-12-29T19:30:00.822Z,100507.59
2022-12-29T19:32:51.845Z,100508.35
2022-12-29T19:35:59.899Z,100507.44
2022-12-29T19:38:37.984Z,100506.30
2022-12-29T19:41:23.108Z,100502.63
2022-12-29T19:45:09.631Z,100503.67
2022-12-29T19:47:46.564Z,100509.13
2022-12-29T19:50:18.313Z,100507.56
2022-12-29T19:52:45.648Z,100511.60
2022-12-29T19:55:16.713Z,100502.89
2022-12-29T19:57:46.083Z,100502.58
2022-12-29T20:00:16.174Z,100501.77
2022-12-29T20:02:54.659Z,100504.86
2022-12-29T20:05:23.093Z,100507.62
2022-12-29T20:07:53.240Z,100510.52
2022-12-29T20:10:21.366Z,100511.13
2022-12-29T20:12:49.605Z,100504.58
2022-12-29T20:15:16.592Z,100500.45
2022-12-29T20:20:52.090Z,100506.14
2022-12-29T20:23:37.736Z,100500.84
2022-12-29T20:26:14.590Z,100499.70
2022-12-29T20:29:06.927Z,100498.77
2022-12-29T20:31:58.109Z,100501.13
2022-12-29T20:34:31.757Z,100498.64
2022-12-29T20:36:59.040Z,100496.89
2022-12-29T20:39:31.445Z,100499.77
2022-12-29T20:42:02.714Z,100500.26
2022-12-29T20:44:31.607Z,100500.02
2022-12-29T20:47:16.589Z,100494.54
2022-12-29T20:49:47.134Z,100494.05
2022-12-29T20:52:14.410Z,100497.25
2022-12-29T20:54:41.416Z,100496.83
2022-12-29T20:57:10.649Z,100496.48
2022-12-29T20:59:51.860Z,100492.09
2022-12-29T21:02:24.383Z,100491.96
2022-12-29T21:05:23.170Z,100497.44
2022-12-29T21:07:45.150Z,100494.61
2022-12-29T21:10:12.116Z,100494.39
2022-12-29T21:12:43.860Z,100494.86
2022-12-29T21:15:13.858Z,100502.04
2022-12-29T21:17:45.032Z,100500.23
2022-12-29T21:20:20.355Z,100497.94
2022-12-29T21:23:25.274Z,100507.77
2022-12-29T21:25:56.326Z,100510.30
2022-12-29T21:28:45.050Z,100511.31
2022-12-29T21:31:37.539Z,100505.75
2022-12-29T21:34:33.963Z,100503.08
2022-12-29T21:37:36.541Z,100502.03
2022-12-29T21:40:40.984Z,100501.25
2022-12-29T21:43:17.574Z,100503.52
2022-12-29T21:45:52.879Z,100505.70
2022-12-29T21:48:37.135Z,100510.67
2022-12-29T21:51:30.623Z,100508.34
2022-12-29T21:54:19.510Z,100509.92
2022-12-29T21:56:54.644Z,100508.44
2022-12-29T21:59:56.355Z,100506.90
2022-12-29T22:06:41.973Z,100504.98
2022-12-29T22:11:24.362Z,100508.05
2022-12-29T22:13:26.280Z,100501.64
2022-12-29T22:16:16.944Z,100502.66
2022-12-29T22:19:03.152Z,100496.97
2022-12-29T22:21:44.516Z,100497.18
2022-12-29T22:24:23.141Z,100500.02
2022-12-29T22:27:23.176Z,100504.68
2022-12-29T22:29:56.636Z,100502.80
2022-12-29T22:32:36.234Z,100502.38
2022-12-29T22:35:25.921Z,100498.33
2022-12-29T22:38:05.715Z,100494.58
2022-12-29T22:40:43.257Z,100486.98
2022-12-29T22:43:29.777Z,100488.92
2022-12-29T22:46:21.462Z,100491.13
2022-12-29T22:48:58.974Z,100503.63
2022-12-29T22:51:27.175Z,100507.60
2022-12-29T22:53:54.298Z,100504.83
2022-12-29T22:56:25.422Z,100504.33
2022-12-29T22:59:11.599Z,100504.41
2022-12-29T23:01:41.653Z,100499.05
2022-12-29T23:04:47.194Z,100497.37
2022-12-29T23:07:02.916Z,100496.55
2022-12-29T23:09:32.416Z,100495.20
2022-12-29T23:11:59.480Z,100494.95
2022-12-29T23:14:31.698Z,100494.96
2022-12-29T23:16:58.371Z,100495.04
2022-12-29T23:19:29.663Z,100504.11
2022-12-29T23:21:57.814Z,100503.40
2022-12-29T23:24:47.865Z,100506.48
2022-12-29T23:30:29.705Z,100510.05
2022-12-29T23:33:24.443Z,100508.45
2022-12-29T23:37:47.999Z,100508.40
2022-12-29T23:39:25.185Z,100512.34
2022-12-29T23:42:41.575Z,100508.55
2022-12-29T23:45:14.300Z,100506.41
2022-12-29T23:47:55.743Z,100507.39
2022-12-29T23:50:31.653Z,100506.48
2022-12-29T23:56:05.498Z,100507.36
2022-12-29T23:58:45.520Z,100506.85
